Time;durP1;ratioP1;P1;durP2;ratioP2;P2;SDS_P1;SDS_P2;PMS_P1;PMS_P2;Temp;Humidity;BMP_temperature;BMP_pressure;BME280_temperature;BME280_humidity;BME280_pressure;Samples;Min_cycle;Max_cycle;Signal;HPM_P1;HPM_P2
2020/12/25 00:01:58;;;;;;;3.50;0.98;;;;;;;3.40;91.10;102143.44;5097749;28;20679;-82
2020/12/25 00:04:23;;;;;;;4.03;0.60;;;;;;;3.38;90.90;102153.91;5073806;28;20135;-82
2020/12/25 00:06:48;;;;;;;2.30;0.57;;;;;;;3.28;91.68;102164.28;5063974;28;20028;-81
2020/12/25 00:09:14;;;;;;;2.72;0.88;;;;;;;3.31;91.27;102159.06;5097539;28;20074;-82
2020/12/25 00:11:39;;;;;;;2.38;0.60;;;;;;;3.32;90.45;102160.84;5078337;28;20054;-82
2020/12/25 00:14:05;;;;;;;2.95;0.77;;;;;;;3.33;90.26;102159.97;5102192;28;20032;-83
2020/12/25 00:16:31;;;;;;;3.42;0.40;;;;;;;3.27;89.86;102165.16;5099783;28;20541;-82
2020/12/25 00:18:57;;;;;;;1.60;0.77;;;;;;;3.24;90.24;102171.22;5101572;28;20031;-81
2020/12/25 00:21:23;;;;;;;4.22;0.60;;;;;;;3.31;89.46;102166.91;5091467;28;20472;-81
2020/12/25 00:23:49;;;;;;;1.75;0.93;;;;;;;3.41;88.96;102173.06;5078137;28;20023;-82
2020/12/25 00:26:22;;;;;;;1.90;0.77;;;;;;;3.32;89.94;102172.16;5101023;28;20039;-82
2020/12/25 00:28:48;;;;;;;1.15;0.47;;;;;;;3.28;89.87;102174.72;5040560;28;20427;-83
2020/12/25 00:31:22;;;;;;;1.75;0.50;;;;;;;3.20;90.27;102172.06;5102076;28;20028;-83
2020/12/25 00:33:47;;;;;;;3.00;0.55;;;;;;;3.17;90.93;102174.66;5102522;28;20023;-84
2020/12/25 00:36:12;;;;;;;3.88;0.60;;;;;;;3.23;90.74;102179.06;5100040;28;20035;-83
2020/12/25 00:38:37;;;;;;;2.20;0.32;;;;;;;3.17;91.08;102187.72;5102183;28;20059;-83
2020/12/25 00:41:02;;;;;;;2.72;0.75;;;;;;;3.11;91.34;102195.50;5095888;28;20396;-84
2020/12/25 00:43:28;;;;;;;1.25;0.57;;;;;;;3.04;91.94;102191.97;5100828;28;20034;-83
2020/12/25 00:45:53;;;;;;;3.05;0.73;;;;;;;3.00;92.67;102198.03;5072494;28;20035;-83
2020/12/25 00:48:18;;;;;;;5.00;0.65;;;;;;;2.89;93.41;102196.19;5097677;28;20508;-83
2020/12/25 00:50:44;;;;;;;2.90;0.50;;;;;;;2.95;93.01;102189.28;5099047;28;20051;-83
2020/12/25 00:53:09;;;;;;;3.47;0.50;;;;;;;2.94;93.78;102199.72;5075058;28;20028;-83
2020/12/25 00:55:34;;;;;;;3.33;0.85;;;;;;;2.89;94.21;102204.03;5093576;28;20032;-83
2020/12/25 00:58:00;;;;;;;1.42;0.50;;;;;;;2.91;94.49;102228.41;5075182;28;20039;-83
2020/12/25 01:00:25;;;;;;;1.73;0.52;;;;;;;2.94;94.24;102224.09;5091044;28;20710;-84
2020/12/25 01:02:50;;;;;;;2.22;0.50;;;;;;;2.93;94.74;102221.47;5071791;28;20024;-83
2020/12/25 01:05:15;;;;;;;2.92;0.73;;;;;;;2.87;95.06;102227.53;5089164;28;20050;-83
2020/12/25 01:07:40;;;;;;;3.20;0.43;;;;;;;2.81;95.18;102227.44;5099593;28;20503;-83
2020/12/25 01:10:06;;;;;;;2.78;1.48;;;;;;;2.88;94.96;102233.63;5093196;28;20066;-84
2020/12/25 01:12:31;;;;;;;2.20;0.30;;;;;;;2.78;95.70;102235.25;5103529;28;20032;-83
2020/12/25 01:14:56;;;;;;;1.50;0.47;;;;;;;2.78;95.85;102228.31;5093658;28;20592;-83
2020/12/25 01:17:22;;;;;;;3.40;0.75;;;;;;;2.77;96.01;102233.50;5096581;28;20047;-83
2020/12/25 01:19:47;;;;;;;3.22;0.50;;;;;;;2.84;95.82;102243.16;5074950;28;20024;-83
2020/12/25 01:22:12;;;;;;;1.38;0.70;;;;;;;2.91;95.69;102247.56;5070174;28;20435;-83
2020/12/25 01:24:37;;;;;;;4.32;0.60;;;;;;;2.92;95.20;102245.84;5098043;28;20027;-83
2020/12/25 01:27:02;;;;;;;3.50;0.60;;;;;;;2.98;95.20;102256.34;5094492;28;20073;-83
2020/12/25 01:29:28;;;;;;;2.85;0.60;;;;;;;2.93;95.56;102264.13;5091893;28;20391;-83
2020/12/25 01:31:53;;;;;;;4.55;0.80;;;;;;;2.98;95.42;102267.66;5100157;28;20019;-83
2020/12/25 01:34:18;;;;;;;4.20;0.77;;;;;;;2.97;95.85;102271.16;5073377;28;20621;-83
2020/12/25 01:36:43;;;;;;;4.32;0.73;;;;;;;2.98;95.61;102274.63;5078709;28;20028;-83
2020/12/25 01:39:09;;;;;;;2.47;0.80;;;;;;;2.99;95.78;102276.38;5095002;28;20543;-83
2020/12/25 01:41:34;;;;;;;2.22;0.70;;;;;;;3.04;95.75;102286.00;5094438;28;20035;-83
2020/12/25 01:43:59;;;;;;;5.95;0.63;;;;;;;3.18;95.55;102283.53;5092532;28;20031;-83
2020/12/25 01:46:26;;;;;;;5.15;1.00;;;;;;;3.22;95.39;102287.06;5080464;28;20023;-83
2020/12/25 01:48:51;;;;;;;5.00;1.10;;;;;;;3.23;95.46;102291.41;5093982;28;20020;-83
2020/12/25 01:51:20;;;;;;;6.72;1.42;;;;;;;3.27;95.31;102295.81;5074270;28;20118;-83
2020/12/25 01:53:45;;;;;;;4.05;1.02;;;;;;;3.32;95.51;102291.50;5096722;28;20074;-83
2020/12/25 01:56:12;;;;;;;8.27;1.30;;;;;;;3.38;95.15;102288.94;5068265;28;20039;-83
2020/12/25 01:58:39;;;;;;;3.92;0.85;;;;;;;3.37;94.92;102305.47;5073779;28;20051;-83
2020/12/25 02:01:04;;;;;;;4.80;1.50;;;;;;;3.32;94.92;102294.97;5093139;28;20379;-83
2020/12/25 02:03:30;;;;;;;3.92;1.33;;;;;;;3.29;94.97;102302.78;5092936;28;20106;-83
2020/12/25 02:05:55;;;;;;;5.82;1.42;;;;;;;3.30;94.45;102295.81;5095079;28;20027;-83
2020/12/25 02:08:20;;;;;;;5.55;0.95;;;;;;;3.43;94.26;102302.03;5079233;28;20060;-83
2020/12/25 02:10:46;;;;;;;6.88;0.88;;;;;;;3.40;94.27;102297.63;5093128;28;20040;-83
2020/12/25 02:13:12;;;;;;;4.90;0.90;;;;;;;3.38;93.98;102292.41;5079188;28;20035;-83
2020/12/25 02:15:37;;;;;;;9.63;1.25;;;;;;;3.41;93.87;102301.13;5097012;28;20094;-83
2020/12/25 02:18:03;;;;;;;6.22;1.27;;;;;;;3.41;93.76;102322.03;5096724;28;20032;-83
2020/12/25 02:20:29;;;;;;;3.20;1.15;;;;;;;3.31;94.34;102324.59;5096738;28;20024;-83
2020/12/25 02:22:54;;;;;;;6.10;0.90;;;;;;;3.30;94.31;102317.59;5078062;28;20035;-83
2020/12/25 02:25:20;;;;;;;9.00;1.00;;;;;;;3.31;93.84;102328.91;5093451;28;20568;-83
2020/12/25 02:27:45;;;;;;;4.50;0.93;;;;;;;3.23;94.19;102333.22;5076892;28;20032;-82
2020/12/25 02:30:10;;;;;;;5.60;1.20;;;;;;;3.15;94.39;102335.75;5077170;28;20035;-83
2020/12/25 02:32:37;;;;;;;7.63;1.13;;;;;;;3.11;94.54;102337.47;5067985;28;20020;-82
2020/12/25 02:35:04;;;;;;;6.28;1.63;;;;;;;3.04;94.88;102343.47;5097494;28;20036;-83
2020/12/25 02:37:29;;;;;;;4.00;1.80;;;;;;;2.96;95.28;102341.63;5098350;28;20103;-83
2020/12/25 02:39:54;;;;;;;4.82;0.70;;;;;;;2.96;95.08;102339.00;5074969;28;20107;-83
2020/12/25 02:42:20;;;;;;;7.60;1.70;;;;;;;2.90;95.42;102341.56;5060123;28;20421;-83
2020/12/25 02:44:45;;;;;;;4.43;1.10;;;;;;;2.91;95.34;102345.94;5096659;28;20099;-83
2020/12/25 02:47:10;;;;;;;4.70;1.23;;;;;;;2.83;95.99;102340.63;5080909;28;20067;-83
2020/12/25 02:49:37;;;;;;;1.88;0.70;;;;;;;2.82;96.13;102342.38;5093832;28;20024;-83
2020/12/25 02:52:02;;;;;;;2.67;0.80;;;;;;;2.92;95.98;102348.56;5078531;28;20028;-83
2020/12/25 02:54:27;;;;;;;3.83;1.00;;;;;;;2.95;96.01;102359.03;5095593;28;20042;-83
2020/12/25 02:56:53;;;;;;;5.10;1.67;;;;;;;3.09;95.16;102352.22;5076219;28;20077;-83
2020/12/25 02:59:18;;;;;;;5.38;0.98;;;;;;;3.11;95.29;102354.84;5099757;28;20038;-83
2020/12/25 03:05:05;;;;;;;6.93;1.00;;;;;;;3.14;95.25;102361.84;5093558;28;20445;-83
2020/12/25 03:07:31;;;;;;;5.47;1.63;;;;;;;3.08;95.54;102365.28;5098503;28;20036;-83
2020/12/25 03:09:56;;;;;;;5.78;0.85;;;;;;;3.01;95.61;102358.22;5079553;28;20073;-82
2020/12/25 03:12:21;;;;;;;4.00;1.40;;;;;;;2.97;96.13;102361.69;5098814;28;20020;-83
2020/12/25 03:14:46;;;;;;;3.35;0.98;;;;;;;2.93;96.33;102363.38;5096177;28;20023;-82
2020/12/25 03:17:12;;;;;;;6.03;1.15;;;;;;;2.84;96.96;102364.16;5081312;28;20039;-83
2020/12/25 03:19:37;;;;;;;5.10;0.80;;;;;;;2.81;97.40;102366.75;5077417;28;20056;-83
2020/12/25 03:22:02;;;;;;;3.80;0.80;;;;;;;2.81;97.84;102386.72;5100875;28;20028;-83
2020/12/25 03:24:27;;;;;;;6.47;1.08;;;;;;;2.91;97.29;102385.09;5072432;28;20036;-83
2020/12/25 03:26:53;;;;;;;5.30;0.90;;;;;;;2.89;97.49;102379.88;5093886;28;20351;-83
2020/12/25 03:29:18;;;;;;;3.33;0.85;;;;;;;3.01;97.01;102381.72;5079554;28;20027;-83
2020/12/25 03:31:43;;;;;;;6.57;1.00;;;;;;;3.10;96.62;102384.47;5101864;28;20045;-83
2020/12/25 03:34:08;;;;;;;5.90;1.50;;;;;;;3.14;96.66;102369.69;5099820;28;20063;-83
2020/12/25 03:36:34;;;;;;;2.28;0.90;;;;;;;3.22;96.18;102353.25;5076619;28;20031;-82
2020/12/25 03:38:59;;;;;;;4.85;1.23;;;;;;;3.26;96.09;102364.59;5098031;28;20399;-83
2020/12/25 03:41:24;;;;;;;9.18;1.27;;;;;;;3.29;96.37;102367.25;5094818;28;20028;-83
2020/12/25 03:43:50;;;;;;;3.90;1.20;;;;;;;3.35;95.49;102376.00;5097974;28;20035;-84
2020/12/25 03:46:15;;;;;;;5.05;1.52;;;;;;;3.40;95.38;102378.66;5064292;28;20042;-83
2020/12/25 03:48:40;;;;;;;5.47;1.08;;;;;;;3.47;94.53;102382.25;5096219;28;20024;-83
2020/12/25 03:51:06;;;;;;;5.53;0.77;;;;;;;3.50;93.21;102380.50;5101884;28;20020;-82
2020/12/25 03:53:31;;;;;;;8.18;0.80;;;;;;;3.57;92.54;102369.25;5076500;28;20024;-82
2020/12/25 03:55:56;;;;;;;9.43;1.00;;;;;;;3.51;93.67;102369.19;5069980;28;20450;-83
2020/12/25 03:58:22;;;;;;;3.83;0.80;;;;;;;3.46;93.76;102375.22;5078084;28;20028;-83
2020/12/25 04:00:47;;;;;;;4.97;0.77;;;;;;;3.39;94.11;102376.91;5085714;28;20024;-84
2020/12/25 04:03:13;;;;;;;6.55;1.27;;;;;;;3.30;94.23;102388.16;5078417;28;20396;-83
2020/12/25 04:05:39;;;;;;;1.80;0.40;;;;;;;3.23;94.76;102388.09;5073920;28;20028;-83
2020/12/25 04:08:04;;;;;;;3.30;0.90;;;;;;;3.20;94.87;102393.28;5059722;28;20020;-83
2020/12/25 04:10:29;;;;;;;4.15;1.25;;;;;;;3.16;94.95;102386.25;5074296;28;20102;-83
2020/12/25 04:12:54;;;;;;;3.67;1.10;;;;;;;3.13;95.34;102388.84;5082073;28;20028;-83
2020/12/25 04:15:20;;;;;;;8.18;1.27;;;;;;;3.07;95.78;102387.06;5077320;28;20404;-83
2020/12/25 04:17:45;;;;;;;3.42;0.70;;;;;;;2.99;96.00;102389.56;5073146;28;20076;-83
2020/12/25 04:20:10;;;;;;;3.75;1.77;;;;;;;3.01;96.69;102392.19;5072971;28;20106;-83
2020/12/25 04:22:35;;;;;;;4.70;1.02;;;;;;;2.97;97.40;102393.91;5073456;28;20458;-84
2020/12/25 04:25:01;;;;;;;6.35;1.08;;;;;;;2.89;97.75;102397.28;5076460;28;20033;-82
2020/12/25 04:27:26;;;;;;;7.13;1.60;;;;;;;2.82;98.49;102391.97;5071934;28;20171;-83
2020/12/25 04:29:51;;;;;;;6.28;0.65;;;;;;;2.85;98.81;102410.28;5072402;28;20028;-82
2020/12/25 04:32:16;;;;;;;8.43;2.83;;;;;;;2.82;99.00;102410.25;5073902;28;20067;-83
2020/12/25 04:34:42;;;;;;;8.95;0.88;;;;;;;2.81;98.97;102420.66;5070226;28;20024;-83
2020/12/25 04:37:07;;;;;;;4.03;0.90;;;;;;;2.78;99.22;102418.91;5073986;28;20032;-83
2020/12/25 04:39:32;;;;;;;11.85;1.02;;;;;;;2.79;99.05;102423.28;5070338;28;20061;-83
2020/12/25 04:41:58;;;;;;;6.18;1.05;;;;;;;2.70;99.22;102414.44;5080744;28;20520;-83
2020/12/25 04:44:23;;;;;;;7.88;0.90;;;;;;;2.68;99.27;102417.03;5075313;28;20044;-83
2020/12/25 04:46:51;;;;;;;9.32;0.93;;;;;;;2.61;99.31;102423.03;5079108;28;20143;-83
2020/12/25 04:49:18;;;;;;;8.77;1.48;;;;;;;2.73;98.63;102419.72;5055713;28;20032;-83
2020/12/25 04:51:43;;;;;;;8.65;1.10;;;;;;;2.72;98.70;102424.06;5066472;28;20020;-84
2020/12/25 04:54:08;;;;;;;3.92;0.95;;;;;;;2.79;98.50;102428.50;5073115;28;20442;-83
2020/12/25 04:56:34;;;;;;;11.90;0.98;;;;;;;2.84;97.91;102424.22;5072157;28;20028;-83
2020/12/25 04:58:59;;;;;;;7.18;1.27;;;;;;;2.88;97.94;102427.75;5075456;28;20072;-83
2020/12/25 05:01:24;;;;;;;9.93;1.00;;;;;;;2.92;97.70;102436.50;5079395;28;20032;-83
2020/12/25 05:03:49;;;;;;;4.07;1.23;;;;;;;2.89;98.03;102439.06;5072413;28;20603;-83
2020/12/25 05:06:17;;;;;;;6.82;1.08;;;;;;;2.87;98.00;102440.78;5078437;28;20088;-83
2020/12/25 05:08:46;;;;;;;7.93;1.10;;;;;;;2.81;98.22;102442.47;5081037;28;20028;-83
2020/12/25 05:11:13;;;;;;;3.10;1.25;;;;;;;2.83;98.15;102445.97;5071569;28;20593;-83
2020/12/25 05:13:44;;;;;;;7.25;0.95;;;;;;;2.87;97.89;102443.41;5080881;28;20105;-83
2020/12/25 05:16:10;;;;;;;6.32;0.90;;;;;;;2.82;97.83;102441.59;5071345;28;20027;-83
2020/12/25 05:18:40;;;;;;;6.03;1.20;;;;;;;2.82;98.12;102439.00;5080870;28;20679;-83
2020/12/25 05:21:09;;;;;;;10.02;1.95;;;;;;;2.79;98.38;102444.16;5070247;28;20492;-83
2020/12/25 05:23:37;;;;;;;16.80;2.13;;;;;;;2.80;98.35;102445.91;5073475;28;20029;-84
2020/12/25 05:26:05;;;;;;;8.50;1.20;;;;;;;2.79;98.55;102446.78;5087741;28;20052;-83
2020/12/25 05:28:35;;;;;;;7.60;0.98;;;;;;;2.76;98.63;102462.41;5075830;28;20027;-84
2020/12/25 05:31:02;;;;;;;5.30;1.15;;;;;;;2.79;98.42;102467.66;5070161;28;20119;-83
2020/12/25 05:33:27;;;;;;;7.43;0.90;;;;;;;2.74;98.66;102460.63;5068642;28;20033;-84
2020/12/25 05:35:55;;;;;;;13.95;2.47;;;;;;;2.78;98.43;102473.75;5079579;28;20071;-83
2020/12/25 05:38:23;;;;;;;7.03;1.35;;;;;;;2.81;98.12;102472.91;5079760;28;20028;-84
2020/12/25 05:40:48;;;;;;;10.73;1.05;;;;;;;2.80;98.14;102469.41;5075131;28;20055;-83
2020/12/25 05:43:17;;;;;;;14.48;1.67;;;;;;;2.77;98.44;102469.38;5082526;28;20516;-84
2020/12/25 05:45:43;;;;;;;6.82;1.60;;;;;;;2.70;98.27;102472.75;5078265;28;20026;-84
2020/12/25 05:48:10;;;;;;;6.80;1.08;;;;;;;2.68;98.61;102474.47;5073558;28;20016;-83
2020/12/25 05:50:37;;;;;;;13.05;2.22;;;;;;;2.75;98.14;102484.13;5086257;28;20035;-84
2020/12/25 05:53:02;;;;;;;16.10;2.00;;;;;;;2.71;99.02;102484.06;5078288;28;20029;-84
2020/12/25 05:55:28;;;;;;;13.68;2.50;;;;;;;2.76;98.53;102488.53;5071430;28;20024;-84
2020/12/25 05:57:56;;;;;;;10.57;2.00;;;;;;;2.78;98.32;102492.03;5069274;28;20112;-84
2020/12/25 06:00:23;;;;;;;12.77;1.60;;;;;;;2.85;98.20;102496.47;5074350;28;20025;-84
2020/12/25 06:02:50;;;;;;;9.50;1.98;;;;;;;3.00;97.17;102501.00;5070655;28;20052;-83
2020/12/25 06:05:17;;;;;;;10.05;2.85;;;;;;;3.05;97.08;102504.56;5084442;28;20028;-83
2020/12/25 06:07:50;;;;;;;10.57;3.33;;;;;;;3.19;96.24;102507.38;5072144;28;20035;-83
2020/12/25 06:10:18;;;;;;;10.80;1.80;;;;;;;3.26;95.54;102505.69;5065228;28;20048;-82
2020/12/25 06:12:43;;;;;;;12.32;1.35;;;;;;;3.35;93.19;102474.44;5077036;28;20211;-82
2020/12/25 06:15:12;;;;;;;3.30;0.70;;;;;;;3.47;90.71;102476.34;5083839;28;20605;-83
2020/12/25 06:17:55;;;;;;;4.85;1.25;;;;;;;3.50;88.78;102485.06;5076014;28;20514;-82
2020/12/25 06:20:21;;;;;;;9.13;1.25;;;;;;;3.51;87.48;102491.19;5080688;28;20081;-82
2020/12/25 06:22:46;;;;;;;12.63;2.47;;;;;;;3.50;87.47;102489.44;5076366;28;20036;-82
2020/12/25 06:25:14;;;;;;;8.35;1.50;;;;;;;3.47;87.06;102490.28;5074225;28;20034;-82
2020/12/25 06:27:59;;;;;;;8.05;1.67;;;;;;;3.49;86.14;102495.53;5086540;28;20036;-81
2020/12/25 06:30:26;;;;;;;7.68;1.00;;;;;;;3.40;86.60;102503.25;5082955;28;20439;-82
2020/12/25 06:32:53;;;;;;;8.63;1.40;;;;;;;3.42;86.18;102499.81;5057252;28;20077;-83
2020/12/25 06:35:37;;;;;;;4.47;0.98;;;;;;;3.43;87.14;102500.69;5072686;28;20097;-84
2020/12/25 06:38:10;;;;;;;2.97;1.15;;;;;;;3.55;86.39;102506.03;5078433;28;20020;-82
2020/12/25 06:40:36;;;;;;;9.57;1.13;;;;;;;3.57;86.67;102504.34;5081333;28;20032;-82
2020/12/25 06:43:02;;;;;;;9.48;2.38;;;;;;;3.55;86.63;102508.66;5077296;28;20085;-81
2020/12/25 06:45:30;;;;;;;5.93;0.90;;;;;;;3.48;87.42;102504.22;5078775;28;20088;-83
2020/12/25 06:48:11;;;;;;;8.75;0.75;;;;;;;3.38;88.19;102514.56;5076864;28;20617;-83
2020/12/25 06:50:41;;;;;;;6.25;0.95;;;;;;;3.28;89.13;102522.28;5079820;28;20035;-82
2020/12/25 06:53:06;;;;;;;5.60;1.45;;;;;;;3.16;90.01;102523.00;5073228;28;20632;-81
2020/12/25 06:55:42;;;;;;;5.93;1.10;;;;;;;3.04;90.83;102522.84;5072479;28;20111;-83
2020/12/25 06:58:08;;;;;;;5.60;1.25;;;;;;;3.01;90.93;102535.84;5086138;28;20031;-82
2020/12/25 07:00:33;;;;;;;7.72;1.33;;;;;;;2.96;91.26;102533.19;5076540;28;20085;-82
2020/12/25 07:03:10;;;;;;;11.02;1.15;;;;;;;2.96;91.70;102535.81;5068163;28;20515;-82
2020/12/25 07:05:44;;;;;;;7.18;1.10;;;;;;;2.93;92.03;102532.28;5071622;28;20051;-82
2020/12/25 07:08:23;;;;;;;7.80;1.30;;;;;;;2.96;91.32;102529.69;5076386;28;21368;-82
2020/12/25 07:10:49;;;;;;;11.82;1.23;;;;;;;3.01;90.88;102528.91;5096377;28;20056;-82
2020/12/25 07:13:21;;;;;;;16.02;2.10;;;;;;;2.92;91.40;102522.69;5096404;28;20026;-83
2020/12/25 07:15:47;;;;;;;8.57;1.25;;;;;;;2.99;90.33;102521.91;5090413;28;20032;-83
2020/12/25 07:18:12;;;;;;;4.35;0.93;;;;;;;2.92;90.97;102518.34;5074127;28;20020;-83
2020/12/25 07:20:37;;;;;;;6.88;0.98;;;;;;;2.87;91.02;102516.53;5097053;28;20035;-82
2020/12/25 07:23:03;;;;;;;5.05;1.30;;;;;;;2.87;90.71;102526.97;5103585;28;20057;-83
2020/12/25 07:25:28;;;;;;;13.40;2.10;;;;;;;2.75;91.63;102531.13;5078933;28;20492;-83
2020/12/25 07:27:55;;;;;;;3.92;0.95;;;;;;;2.73;90.96;102532.84;5101144;28;20019;-83
2020/12/25 07:30:21;;;;;;;6.78;1.48;;;;;;;2.74;91.08;102539.84;5074683;28;20043;-82
2020/12/25 07:32:46;;;;;;;7.35;1.23;;;;;;;2.66;91.99;102538.84;5072639;28;20110;-82
2020/12/25 07:35:21;;;;;;;5.95;1.08;;;;;;;2.77;90.97;102541.63;5073592;28;20069;-82
2020/12/25 07:38:17;;;;;;;7.13;1.08;;;;;;;2.80;91.01;102552.97;5081538;28;20024;-82
2020/12/25 07:40:44;;;;;;;6.07;1.90;;;;;;;2.70;91.09;102556.31;5024932;28;20177;-81
2020/12/25 07:43:11;;;;;;;3.75;0.88;;;;;;;2.65;90.75;102551.88;5013598;28;20038;-82
2020/12/25 07:45:37;;;;;;;7.75;1.20;;;;;;;2.65;90.13;102552.75;5008811;28;20057;-81
2020/12/25 07:48:04;;;;;;;6.82;1.05;;;;;;;2.56;90.70;102561.31;5015821;28;20447;-82
2020/12/25 07:50:42;;;;;;;3.83;1.30;;;;;;;2.39;92.17;102568.00;5002098;28;20057;-82
2020/12/25 08:03:13;;;;;;;8.27;0.95;;;;;;;2.31;92.66;102570.47;5005492;28;20787;-81
2020/12/25 08:05:41;;;;;;;8.18;1.42;;;;;;;2.30;92.04;102573.03;5016179;28;20037;-80
2020/12/25 08:12:09;;;;;;;5.60;1.00;;;;;;;2.51;91.23;102588.19;4990250;28;20056;-81
2020/12/25 08:14:38;;;;;;;7.55;1.00;;;;;;;2.53;91.51;102587.38;4963907;28;20039;-82
2020/12/25 08:17:03;;;;;;;4.63;1.48;;;;;;;2.55;91.34;102587.38;5030701;28;20045;-82
2020/12/25 08:19:35;;;;;;;1.70;0.77;;;;;;;2.64;90.48;102571.88;5046329;28;20043;-81
2020/12/25 08:22:08;;;;;;;7.28;1.50;;;;;;;2.70;91.02;102576.31;5043225;28;20052;-82
2020/12/25 08:24:35;;;;;;;12.43;1.40;;;;;;;2.74;90.57;102580.72;5041577;28;20564;-82
2020/12/25 08:27:02;;;;;;;6.18;1.45;;;;;;;2.79;90.45;102579.94;5038774;28;20043;-81
2020/12/25 08:29:31;;;;;;;8.98;1.67;;;;;;;2.82;91.21;102585.22;5042047;28;20552;-82
2020/12/25 08:32:09;;;;;;;12.75;1.65;;;;;;;2.83;90.94;102593.94;5040649;28;20127;-80
2020/12/25 08:34:36;;;;;;;7.53;3.15;;;;;;;2.83;90.62;102586.97;5043570;28;20045;-80
2020/12/25 08:37:07;;;;;;;10.48;2.13;;;;;;;2.95;89.58;102588.00;5041019;28;20029;-81
2020/12/25 08:39:33;;;;;;;13.68;2.53;;;;;;;2.96;89.87;102587.16;5049097;28;20119;-80
2020/12/25 08:41:59;;;;;;;9.40;2.08;;;;;;;3.09;89.43;102574.28;5031183;28;20024;-81
2020/12/25 08:44:24;;;;;;;4.35;1.50;;;;;;;3.25;88.84;102582.34;5046660;28;20047;-81
2020/12/25 08:46:50;;;;;;;15.93;1.90;;;;;;;3.36;88.64;102580.75;5048560;28;20033;-81
2020/12/25 08:49:28;;;;;;;9.73;1.50;;;;;;;3.35;88.33;102585.09;5049348;28;20020;-82
2020/12/25 08:51:54;;;;;;;6.70;1.40;;;;;;;3.37;88.27;102585.13;5031422;28;20033;-83
2020/12/25 08:54:29;;;;;;;12.30;1.80;;;;;;;3.94;86.58;102589.28;5047751;28;20104;-81
2020/12/25 08:56:56;;;;;;;9.57;1.92;;;;;;;4.31;84.16;102587.91;5050013;28;20051;-81
2020/12/25 08:59:21;;;;;;;13.93;1.90;;;;;;;4.21;84.65;102586.06;5048020;28;20025;-81
2020/12/25 09:01:48;;;;;;;9.45;2.15;;;;;;;4.84;82.61;102591.84;5044806;28;20481;-81
2020/12/25 09:04:22;;;;;;;8.65;1.50;;;;;;;4.55;83.38;102589.00;5044280;28;20031;-82
2020/12/25 09:06:51;;;;;;;9.93;1.27;;;;;;;4.54;83.47;102588.13;5047022;28;20135;-81
2020/12/25 09:09:16;;;;;;;9.65;1.27;;;;;;;5.86;79.64;102589.72;5049975;28;20487;-81
2020/12/25 09:11:41;;;;;;;9.50;1.33;;;;;;;4.62;82.39;102586.47;5044963;28;20031;-80
2020/12/25 09:14:07;;;;;;;12.43;1.90;;;;;;;4.40;84.35;102605.44;5064565;28;20105;-81
2020/12/25 09:16:32;;;;;;;7.82;1.63;;;;;;;6.06;78.27;102608.19;5064646;28;20036;-82
2020/12/25 09:18:59;;;;;;;13.27;1.25;;;;;;;8.76;69.48;102606.50;5067198;28;20126;-83
2020/12/25 09:21:27;;;;;;;9.27;2.55;;;;;;;9.05;66.86;102606.22;5070633;28;20104;-82
2020/12/25 09:23:53;;;;;;;9.25;2.70;;;;;;;9.54;63.58;102603.06;5069046;28;20451;-82
2020/12/25 09:26:18;;;;;;;9.48;2.10;;;;;;;9.67;63.13;102605.53;5069157;28;20027;-82
2020/12/25 09:28:43;;;;;;;10.02;1.95;;;;;;;9.27;63.92;102601.59;5065931;28;20021;-81
2020/12/25 09:31:12;;;;;;;10.63;1.90;;;;;;;9.29;64.58;102609.50;5074164;28;20028;-80
2020/12/25 09:33:37;;;;;;;7.32;1.88;;;;;;;9.40;64.85;102618.16;5068048;28;20093;-79
2020/12/25 09:36:04;;;;;;;12.23;2.22;;;;;;;9.48;65.39;102645.31;5068297;28;20052;-81
2020/12/25 09:38:30;;;;;;;8.32;1.85;;;;;;;6.26;75.29;102637.13;5067246;28;20036;-82
2020/12/25 09:40:56;;;;;;;3.08;1.20;;;;;;;5.25;82.82;102634.06;5050103;28;20107;-81
2020/12/25 09:43:22;;;;;;;8.85;1.63;;;;;;;5.00;83.40;102640.88;5066028;28;20078;-81
2020/12/25 09:45:47;;;;;;;6.50;1.35;;;;;;;4.57;84.70;102645.78;5069604;28;20032;-81
2020/12/25 09:48:13;;;;;;;14.55;2.28;;;;;;;4.99;84.25;102646.97;5075930;28;20107;-82
2020/12/25 09:50:38;;;;;;;13.38;2.25;;;;;;;6.65;78.65;102640.69;5074362;28;20020;-81
2020/12/25 09:53:04;;;;;;;9.80;1.50;;;;;;;7.97;71.05;102628.09;5074189;28;20028;-81
2020/12/25 09:55:35;;;;;;;7.90;1.58;;;;;;;8.19;72.88;102639.41;5072000;28;20020;-81
2020/12/25 09:58:02;;;;;;;7.70;2.08;;;;;;;9.45;67.44;102631.31;5073535;28;20086;-84
2020/12/25 10:00:29;;;;;;;13.48;1.80;;;;;;;9.25;67.80;102640.31;5071033;28;20032;-84
2020/12/25 10:02:54;;;;;;;10.30;1.70;;;;;;;8.45;68.83;102647.16;5076216;28;20127;-83
2020/12/25 10:05:19;;;;;;;5.97;1.83;;;;;;;9.83;65.56;102644.03;5075642;28;20115;-83
2020/12/25 10:07:46;;;;;;;13.15;2.97;;;;;;;10.96;62.50;102642.38;5076131;28;20032;-83
2020/12/25 10:10:14;;;;;;;7.18;1.48;;;;;;;10.37;63.31;102639.78;5076485;28;20035;-85
2020/12/25 10:12:39;;;;;;;9.75;1.83;;;;;;;11.48;60.11;102638.75;5074970;28;20127;-85
2020/12/25 10:15:04;;;;;;;16.75;2.25;;;;;;;11.69;59.43;102637.44;5096540;28;20131;-84
2020/12/25 10:17:30;;;;;;;10.02;2.03;;;;;;;9.07;66.22;102645.75;5095607;28;20504;-84
2020/12/25 10:19:55;;;;;;;13.70;4.00;;;;;;;7.78;71.84;102648.34;5099770;28;20016;-84
2020/12/25 10:22:22;;;;;;;10.77;1.83;;;;;;;6.96;74.33;102647.69;5102261;28;20023;-84
2020/12/25 10:24:47;;;;;;;8.15;1.50;;;;;;;7.19;73.53;102654.69;5096567;28;20016;-84
2020/12/25 10:27:13;;;;;;;9.38;2.33;;;;;;;10.23;65.43;102647.00;5085829;28;20029;-83
2020/12/25 10:29:38;;;;;;;12.13;2.72;;;;;;;10.74;62.01;102635.69;5079696;28;20026;-83
2020/12/25 10:32:03;;;;;;;6.72;1.90;;;;;;;10.32;62.60;102633.72;5104773;28;20042;-83
2020/12/25 10:34:29;;;;;;;13.25;3.10;;;;;;;10.58;62.20;102635.06;5101817;28;20027;-82
2020/12/25 10:36:54;;;;;;;11.52;2.72;;;;;;;10.71;61.51;102639.28;5073813;28;20051;-82
2020/12/25 10:39:19;;;;;;;10.57;2.50;;;;;;;11.31;59.52;102635.56;5101061;28;20602;-83
2020/12/25 10:41:45;;;;;;;10.43;2.10;;;;;;;11.78;60.86;102634.63;5097827;28;20637;-83
2020/12/25 10:44:10;;;;;;;6.75;2.67;;;;;;;12.14;58.24;102632.97;5099861;28;20437;-83
2020/12/25 10:46:36;;;;;;;14.88;3.05;;;;;;;11.76;59.13;102639.09;5102826;28;20028;-84
2020/12/25 10:49:01;;;;;;;11.57;2.58;;;;;;;9.87;62.10;102645.75;5082132;28;20390;-83
2020/12/25 10:51:27;;;;;;;10.50;1.73;;;;;;;9.49;64.33;102644.47;5102159;28;20030;-83
2020/12/25 10:53:52;;;;;;;13.02;2.08;;;;;;;7.96;69.79;102650.91;5101842;28;20023;-83
2020/12/25 10:56:31;;;;;;;12.07;2.05;;;;;;;7.31;73.36;102659.03;5101351;28;20036;-84
2020/12/25 10:58:56;;;;;;;8.07;2.53;;;;;;;6.55;74.90;102666.06;5092330;28;20047;-82
2020/12/25 11:01:22;;;;;;;10.90;2.75;;;;;;;6.35;75.95;102666.03;5096592;28;20090;-83
2020/12/25 11:03:48;;;;;;;6.53;1.50;;;;;;;6.08;77.38;102652.84;5096760;28;20085;-83
2020/12/25 11:06:13;;;;;;;12.55;1.73;;;;;;;6.05;78.15;102658.06;5076166;28;20410;-84
2020/12/25 11:08:39;;;;;;;6.85;1.35;;;;;;;5.60;80.27;102647.34;5096305;28;20103;-82
2020/12/25 11:11:04;;;;;;;6.72;1.20;;;;;;;5.36;82.40;102648.09;5096494;28;20106;-82
2020/12/25 11:13:32;;;;;;;9.88;1.58;;;;;;;5.34;85.01;102649.84;5075627;28;20044;-82
2020/12/25 11:15:57;;;;;;;14.65;2.17;;;;;;;5.42;85.96;102644.63;5101979;28;20028;-82
2020/12/25 11:18:23;;;;;;;11.68;1.80;;;;;;;5.45;83.62;102645.53;5099943;28;20024;-82
2020/12/25 11:20:48;;;;;;;11.05;2.53;;;;;;;5.46;83.90;102641.16;5097442;28;20028;-83
2020/12/25 11:23:13;;;;;;;10.23;1.70;;;;;;;5.18;82.98;102634.91;5099339;28;20024;-82
2020/12/25 11:25:39;;;;;;;16.42;3.50;;;;;;;6.24;80.82;102641.50;5099376;28;20027;-83
2020/12/25 11:28:04;;;;;;;6.78;2.25;;;;;;;8.39;73.36;102636.66;5098788;28;20040;-83
2020/12/25 11:30:29;;;;;;;10.93;2.10;;;;;;;8.88;70.78;102637.13;5101678;28;20053;-84
2020/12/25 11:32:54;;;;;;;8.70;1.52;;;;;;;8.24;72.67;102637.63;5097728;28;20031;-81
2020/12/25 11:35:20;;;;;;;12.80;2.30;;;;;;;9.84;68.88;102630.84;5099244;28;20023;-82
2020/12/25 11:37:46;;;;;;;11.85;1.50;;;;;;;9.89;65.11;102629.88;5075533;28;20477;-82
2020/12/25 11:40:11;;;;;;;10.20;1.92;;;;;;;10.62;64.96;102629.72;5096175;28;20200;-82
2020/12/25 11:42:37;;;;;;;19.80;3.53;;;;;;;11.39;60.95;102610.69;5098300;28;20488;-84
2020/12/25 11:45:03;;;;;;;10.93;1.63;;;;;;;10.04;63.34;102612.09;5098403;28;20030;-82
2020/12/25 11:47:28;;;;;;;7.97;1.60;;;;;;;9.40;64.95;102612.03;5101176;28;20132;-84